sensor_id;sensor_type;location;lat;lon;timestamp;P1;durP1;ratioP1;P2;durP2;ratioP2
7295;SDS011;40758;54.038;11.684;2023-04-15T00:01:50;40.58;;;16.35;;
7295;SDS011;40758;54.038;11.684;2023-04-15T00:04:17;49.38;;;19.15;;
7295;SDS011;40758;54.038;11.684;2023-04-15T00:06:48;53.05;;;18.77;;
7295;SDS011;40758;54.038;11.684;2023-04-15T00:09:19;58.15;;;20.55;;
7295;SDS011;40758;54.038;11.684;2023-04-15T00:11:46;61.42;;;21.95;;
7295;SDS011;40758;54.038;11.684;2023-04-15T00:14:12;61.45;;;21.58;;
7295;SDS011;40758;54.038;11.684;2023-04-15T00:16:39;46.88;;;17.13;;
7295;SDS011;40758;54.038;11.684;2023-04-15T00:19:08;65.38;;;21.60;;
7295;SDS011;40758;54.038;11.684;2023-04-15T00:21:35;63.63;;;19.55;;
7295;SDS011;40758;54.038;11.684;2023-04-15T00:24:02;67.13;;;20.85;;
7295;SDS011;40758;54.038;11.684;2023-04-15T00:26:29;59.03;;;18.33;;
7295;SDS011;40758;54.038;11.684;2023-04-15T00:28:55;82.60;;;25.48;;
7295;SDS011;40758;54.038;11.684;2023-04-15T00:31:22;68.65;;;22.13;;
7295;SDS011;40758;54.038;11.684;2023-04-15T00:33:49;66.43;;;21.38;;
7295;SDS011;40758;54.038;11.684;2023-04-15T00:36:15;59.88;;;19.20;;
7295;SDS011;40758;54.038;11.684;2023-04-15T00:38:42;58.10;;;20.05;;
7295;SDS011;40758;54.038;11.684;2023-04-15T00:41:09;57.20;;;19.90;;
7295;SDS011;40758;54.038;11.684;2023-04-15T00:43:39;58.67;;;19.95;;
7295;SDS011;40758;54.038;11.684;2023-04-15T00:46:07;54.38;;;17.50;;
7295;SDS011;40758;54.038;11.684;2023-04-15T00:48:37;59.10;;;20.35;;
7295;SDS011;40758;54.038;11.684;2023-04-15T00:51:05;63.22;;;21.70;;
7295;SDS011;40758;54.038;11.684;2023-04-15T00:53:32;61.50;;;22.52;;
7295;SDS011;40758;54.038;11.684;2023-04-15T00:55:59;60.33;;;20.35;;
7295;SDS011;40758;54.038;11.684;2023-04-15T00:58:26;62.90;;;21.08;;
7295;SDS011;40758;54.038;11.684;2023-04-15T01:00:54;80.13;;;27.98;;
7295;SDS011;40758;54.038;11.684;2023-04-15T01:03:22;73.72;;;21.45;;
7295;SDS011;40758;54.038;11.684;2023-04-15T01:05:49;59.67;;;22.27;;
7295;SDS011;40758;54.038;11.684;2023-04-15T01:08:29;56.88;;;20.98;;
7295;SDS011;40758;54.038;11.684;2023-04-15T01:10:56;64.97;;;20.23;;
7295;SDS011;40758;54.038;11.684;2023-04-15T01:13:26;71.65;;;24.33;;
7295;SDS011;40758;54.038;11.684;2023-04-15T01:15:54;71.88;;;22.70;;
7295;SDS011;40758;54.038;11.684;2023-04-15T01:18:22;65.97;;;20.25;;
7295;SDS011;40758;54.038;11.684;2023-04-15T01:20:49;54.85;;;18.88;;
7295;SDS011;40758;54.038;11.684;2023-04-15T01:23:16;53.25;;;20.08;;
7295;SDS011;40758;54.038;11.684;2023-04-15T01:25:43;72.70;;;24.58;;
7295;SDS011;40758;54.038;11.684;2023-04-15T01:28:11;56.50;;;19.80;;
7295;SDS011;40758;54.038;11.684;2023-04-15T01:30:38;67.82;;;21.63;;
7295;SDS011;40758;54.038;11.684;2023-04-15T01:33:05;63.28;;;21.58;;
7295;SDS011;40758;54.038;11.684;2023-04-15T01:35:32;71.88;;;22.25;;
7295;SDS011;40758;54.038;11.684;2023-04-15T01:38:01;74.55;;;23.70;;
7295;SDS011;40758;54.038;11.684;2023-04-15T01:40:31;69.32;;;22.92;;
7295;SDS011;40758;54.038;11.684;2023-04-15T01:42:58;49.30;;;16.55;;
7295;SDS011;40758;54.038;11.684;2023-04-15T01:45:26;59.03;;;18.88;;
7295;SDS011;40758;54.038;11.684;2023-04-15T01:47:53;67.57;;;18.08;;
7295;SDS011;40758;54.038;11.684;2023-04-15T01:50:20;51.35;;;15.43;;
7295;SDS011;40758;54.038;11.684;2023-04-15T01:52:47;49.13;;;17.40;;
7295;SDS011;40758;54.038;11.684;2023-04-15T01:55:13;65.68;;;20.70;;
7295;SDS011;40758;54.038;11.684;2023-04-15T01:57:42;62.03;;;19.15;;
7295;SDS011;40758;54.038;11.684;2023-04-15T02:00:09;51.92;;;18.33;;
7295;SDS011;40758;54.038;11.684;2023-04-15T02:02:37;75.53;;;21.70;;
7295;SDS011;40758;54.038;11.684;2023-04-15T02:05:05;75.18;;;21.70;;
7295;SDS011;40758;54.038;11.684;2023-04-15T02:07:31;64.65;;;21.17;;
7295;SDS011;40758;54.038;11.684;2023-04-15T02:09:58;76.38;;;22.88;;
7295;SDS011;40758;54.038;11.684;2023-04-15T02:12:25;66.05;;;21.40;;
7295;SDS011;40758;54.038;11.684;2023-04-15T02:14:52;88.25;;;26.58;;
7295;SDS011;40758;54.038;11.684;2023-04-15T02:17:19;85.88;;;25.15;;
7295;SDS011;40758;54.038;11.684;2023-04-15T02:19:47;78.38;;;22.48;;
7295;SDS011;40758;54.038;11.684;2023-04-15T02:22:13;76.55;;;22.77;;
7295;SDS011;40758;54.038;11.684;2023-04-15T02:24:44;76.95;;;21.05;;
7295;SDS011;40758;54.038;11.684;2023-04-15T02:27:15;73.43;;;22.48;;
7295;SDS011;40758;54.038;11.684;2023-04-15T02:29:45;56.58;;;18.75;;
7295;SDS011;40758;54.038;11.684;2023-04-15T02:32:12;59.33;;;21.83;;
7295;SDS011;40758;54.038;11.684;2023-04-15T02:34:39;65.68;;;24.88;;
7295;SDS011;40758;54.038;11.684;2023-04-15T02:37:12;79.82;;;25.88;;
7295;SDS011;40758;54.038;11.684;2023-04-15T02:39:39;70.32;;;23.65;;
7295;SDS011;40758;54.038;11.684;2023-04-15T02:42:07;67.72;;;24.60;;
7295;SDS011;40758;54.038;11.684;2023-04-15T02:44:34;69.10;;;23.83;;
7295;SDS011;40758;54.038;11.684;2023-04-15T02:47:01;77.35;;;21.52;;
7295;SDS011;40758;54.038;11.684;2023-04-15T02:49:31;64.32;;;21.60;;
7295;SDS011;40758;54.038;11.684;2023-04-15T02:51:58;66.90;;;21.10;;
7295;SDS011;40758;54.038;11.684;2023-04-15T02:54:25;80.88;;;25.70;;
7295;SDS011;40758;54.038;11.684;2023-04-15T02:56:55;87.10;;;26.30;;
7295;SDS011;40758;54.038;11.684;2023-04-15T02:59:21;66.15;;;20.63;;
7295;SDS011;40758;54.038;11.684;2023-04-15T03:01:48;76.82;;;23.80;;
7295;SDS011;40758;54.038;11.684;2023-04-15T03:04:15;65.03;;;22.40;;
7295;SDS011;40758;54.038;11.684;2023-04-15T03:06:42;73.28;;;21.65;;
7295;SDS011;40758;54.038;11.684;2023-04-15T03:09:09;59.50;;;20.80;;
7295;SDS011;40758;54.038;11.684;2023-04-15T03:14:08;53.80;;;18.42;;
7295;SDS011;40758;54.038;11.684;2023-04-15T03:16:35;48.03;;;18.58;;
7295;SDS011;40758;54.038;11.684;2023-04-15T03:19:01;55.22;;;18.55;;
7295;SDS011;40758;54.038;11.684;2023-04-15T03:21:28;59.10;;;20.10;;
7295;SDS011;40758;54.038;11.684;2023-04-15T03:23:56;50.20;;;18.05;;
7295;SDS011;40758;54.038;11.684;2023-04-15T03:26:31;50.97;;;17.45;;
7295;SDS011;40758;54.038;11.684;2023-04-15T03:28:58;60.63;;;21.25;;
7295;SDS011;40758;54.038;11.684;2023-04-15T03:31:25;60.45;;;20.00;;
7295;SDS011;40758;54.038;11.684;2023-04-15T03:33:52;62.08;;;21.80;;
7295;SDS011;40758;54.038;11.684;2023-04-15T03:36:18;62.92;;;22.13;;
7295;SDS011;40758;54.038;11.684;2023-04-15T03:38:45;60.05;;;18.67;;
7295;SDS011;40758;54.038;11.684;2023-04-15T03:41:12;56.30;;;20.83;;
7295;SDS011;40758;54.038;11.684;2023-04-15T03:43:39;61.05;;;21.15;;
7295;SDS011;40758;54.038;11.684;2023-04-15T03:46:07;54.88;;;19.88;;
7295;SDS011;40758;54.038;11.684;2023-04-15T03:48:34;51.83;;;18.23;;
7295;SDS011;40758;54.038;11.684;2023-04-15T03:51:01;56.58;;;22.40;;
7295;SDS011;40758;54.038;11.684;2023-04-15T03:53:28;57.80;;;19.13;;
7295;SDS011;40758;54.038;11.684;2023-04-15T03:55:54;48.20;;;19.23;;
7295;SDS011;40758;54.038;11.684;2023-04-15T03:58:22;62.05;;;23.08;;
7295;SDS011;40758;54.038;11.684;2023-04-15T04:00:48;66.18;;;22.77;;
7295;SDS011;40758;54.038;11.684;2023-04-15T04:03:15;63.15;;;22.42;;
7295;SDS011;40758;54.038;11.684;2023-04-15T04:05:43;67.93;;;22.58;;
7295;SDS011;40758;54.038;11.684;2023-04-15T04:08:09;64.13;;;21.88;;
7295;SDS011;40758;54.038;11.684;2023-04-15T04:10:39;61.05;;;21.50;;
7295;SDS011;40758;54.038;11.684;2023-04-15T04:13:07;72.72;;;24.23;;
7295;SDS011;40758;54.038;11.684;2023-04-15T04:15:34;67.60;;;22.15;;
7295;SDS011;40758;54.038;11.684;2023-04-15T04:18:00;82.63;;;24.75;;
7295;SDS011;40758;54.038;11.684;2023-04-15T04:20:27;64.72;;;21.48;;
7295;SDS011;40758;54.038;11.684;2023-04-15T04:22:54;73.43;;;24.23;;
7295;SDS011;40758;54.038;11.684;2023-04-15T04:25:21;84.88;;;28.17;;
7295;SDS011;40758;54.038;11.684;2023-04-15T04:27:48;74.45;;;25.63;;
7295;SDS011;40758;54.038;11.684;2023-04-15T04:30:14;80.40;;;28.40;;
7295;SDS011;40758;54.038;11.684;2023-04-15T04:32:42;80.25;;;27.25;;
7295;SDS011;40758;54.038;11.684;2023-04-15T04:35:08;93.82;;;29.27;;
7295;SDS011;40758;54.038;11.684;2023-04-15T04:37:37;72.65;;;26.13;;
7295;SDS011;40758;54.038;11.684;2023-04-15T04:40:04;68.47;;;23.85;;
7295;SDS011;40758;54.038;11.684;2023-04-15T04:42:31;66.22;;;24.75;;
7295;SDS011;40758;54.038;11.684;2023-04-15T04:44:58;80.30;;;27.17;;
7295;SDS011;40758;54.038;11.684;2023-04-15T04:47:25;73.20;;;26.75;;
7295;SDS011;40758;54.038;11.684;2023-04-15T04:49:51;77.90;;;23.77;;
7295;SDS011;40758;54.038;11.684;2023-04-15T04:52:18;78.15;;;24.20;;
7295;SDS011;40758;54.038;11.684;2023-04-15T04:54:44;75.97;;;27.90;;
7295;SDS011;40758;54.038;11.684;2023-04-15T04:57:12;73.90;;;30.88;;
7295;SDS011;40758;54.038;11.684;2023-04-15T04:59:39;85.28;;;28.17;;
7295;SDS011;40758;54.038;11.684;2023-04-15T05:02:07;81.53;;;26.75;;
7295;SDS011;40758;54.038;11.684;2023-04-15T05:04:34;88.03;;;27.85;;
7295;SDS011;40758;54.038;11.684;2023-04-15T05:07:02;87.57;;;30.92;;
7295;SDS011;40758;54.038;11.684;2023-04-15T05:09:29;87.55;;;29.60;;
7295;SDS011;40758;54.038;11.684;2023-04-15T05:16:52;80.38;;;26.83;;
7295;SDS011;40758;54.038;11.684;2023-04-15T05:19:18;92.15;;;32.88;;
7295;SDS011;40758;54.038;11.684;2023-04-15T05:21:45;79.32;;;27.40;;
7295;SDS011;40758;54.038;11.684;2023-04-15T05:24:12;79.65;;;27.55;;
7295;SDS011;40758;54.038;11.684;2023-04-15T05:26:39;71.95;;;26.23;;
7295;SDS011;40758;54.038;11.684;2023-04-15T05:29:08;74.15;;;27.50;;
7295;SDS011;40758;54.038;11.684;2023-04-15T05:31:35;71.38;;;28.13;;
7295;SDS011;40758;54.038;11.684;2023-04-15T05:34:02;75.65;;;28.50;;
7295;SDS011;40758;54.038;11.684;2023-04-15T05:36:28;69.68;;;27.63;;
7295;SDS011;40758;54.038;11.684;2023-04-15T05:38:56;64.28;;;25.17;;
7295;SDS011;40758;54.038;11.684;2023-04-15T05:41:23;72.68;;;27.23;;
7295;SDS011;40758;54.038;11.684;2023-04-15T05:43:50;69.32;;;30.83;;
7295;SDS011;40758;54.038;11.684;2023-04-15T05:46:17;72.63;;;30.63;;
7295;SDS011;40758;54.038;11.684;2023-04-15T05:48:44;71.15;;;27.52;;
7295;SDS011;40758;54.038;11.684;2023-04-15T05:51:11;70.22;;;25.05;;
7295;SDS011;40758;54.038;11.684;2023-04-15T05:53:38;67.25;;;26.40;;
7295;SDS011;40758;54.038;11.684;2023-04-15T05:56:08;55.53;;;22.90;;
7295;SDS011;40758;54.038;11.684;2023-04-15T05:58:36;61.35;;;24.20;;
7295;SDS011;40758;54.038;11.684;2023-04-15T06:01:03;58.40;;;25.38;;
7295;SDS011;40758;54.038;11.684;2023-04-15T06:03:31;52.17;;;24.17;;
7295;SDS011;40758;54.038;11.684;2023-04-15T06:05:58;58.03;;;25.00;;
7295;SDS011;40758;54.038;11.684;2023-04-15T06:08:26;53.47;;;23.63;;
7295;SDS011;40758;54.038;11.684;2023-04-15T06:10:53;55.15;;;25.67;;
7295;SDS011;40758;54.038;11.684;2023-04-15T06:13:19;53.58;;;24.30;;
7295;SDS011;40758;54.038;11.684;2023-04-15T06:15:46;52.72;;;24.80;;
7295;SDS011;40758;54.038;11.684;2023-04-15T06:18:13;53.40;;;24.08;;
7295;SDS011;40758;54.038;11.684;2023-04-15T06:20:39;52.25;;;22.83;;
7295;SDS011;40758;54.038;11.684;2023-04-15T06:23:08;48.00;;;22.27;;
7295;SDS011;40758;54.038;11.684;2023-04-15T06:25:35;48.95;;;20.33;;
7295;SDS011;40758;54.038;11.684;2023-04-15T06:28:02;38.97;;;20.20;;
7295;SDS011;40758;54.038;11.684;2023-04-15T06:30:28;38.83;;;21.27;;
7295;SDS011;40758;54.038;11.684;2023-04-15T06:32:55;46.30;;;21.75;;
7295;SDS011;40758;54.038;11.684;2023-04-15T06:35:22;39.47;;;20.98;;
7295;SDS011;40758;54.038;11.684;2023-04-15T06:37:49;47.05;;;27.10;;
7295;SDS011;40758;54.038;11.684;2023-04-15T06:40:17;40.08;;;20.42;;
7295;SDS011;40758;54.038;11.684;2023-04-15T06:42:43;34.38;;;18.02;;
7295;SDS011;40758;54.038;11.684;2023-04-15T06:45:10;33.40;;;18.40;;
7295;SDS011;40758;54.038;11.684;2023-04-15T06:47:37;30.67;;;17.52;;
7295;SDS011;40758;54.038;11.684;2023-04-15T06:50:04;28.63;;;16.98;;
7295;SDS011;40758;54.038;11.684;2023-04-15T06:52:31;32.42;;;16.88;;
7295;SDS011;40758;54.038;11.684;2023-04-15T06:54:58;32.22;;;18.55;;
7295;SDS011;40758;54.038;11.684;2023-04-15T06:57:25;29.08;;;17.02;;
7295;SDS011;40758;54.038;11.684;2023-04-15T06:59:52;23.77;;;15.43;;
7295;SDS011;40758;54.038;11.684;2023-04-15T07:02:19;26.25;;;16.88;;
7295;SDS011;40758;54.038;11.684;2023-04-15T07:04:46;24.88;;;15.77;;
7295;SDS011;40758;54.038;11.684;2023-04-15T07:07:14;24.48;;;14.50;;
7295;SDS011;40758;54.038;11.684;2023-04-15T07:09:43;27.52;;;14.75;;
7295;SDS011;40758;54.038;11.684;2023-04-15T07:12:10;24.02;;;14.55;;
7295;SDS011;40758;54.038;11.684;2023-04-15T07:14:39;25.35;;;14.18;;
7295;SDS011;40758;54.038;11.684;2023-04-15T07:17:08;22.25;;;12.27;;
7295;SDS011;40758;54.038;11.684;2023-04-15T07:19:35;22.13;;;12.88;;
7295;SDS011;40758;54.038;11.684;2023-04-15T07:22:03;22.38;;;14.63;;
7295;SDS011;40758;54.038;11.684;2023-04-15T07:24:29;23.75;;;13.93;;
7295;SDS011;40758;54.038;11.684;2023-04-15T07:26:56;22.60;;;14.18;;
7295;SDS011;40758;54.038;11.684;2023-04-15T07:29:25;20.60;;;11.43;;
7295;SDS011;40758;54.038;11.684;2023-04-15T07:31:52;20.20;;;12.75;;
7295;SDS011;40758;54.038;11.684;2023-04-15T07:34:19;16.38;;;11.93;;
7295;SDS011;40758;54.038;11.684;2023-04-15T07:36:46;19.63;;;11.20;;
7295;SDS011;40758;54.038;11.684;2023-04-15T07:39:16;20.10;;;12.93;;
7295;SDS011;40758;54.038;11.684;2023-04-15T07:41:43;17.67;;;11.85;;
7295;SDS011;40758;54.038;11.684;2023-04-15T07:44:10;19.77;;;12.90;;
7295;SDS011;40758;54.038;11.684;2023-04-15T07:46:37;18.92;;;11.90;;
7295;SDS011;40758;54.038;11.684;2023-04-15T07:49:04;18.17;;;12.23;;
7295;SDS011;40758;54.038;11.684;2023-04-15T07:51:32;15.60;;;10.95;;
7295;SDS011;40758;54.038;11.684;2023-04-15T07:53:58;18.33;;;12.35;;
7295;SDS011;40758;54.038;11.684;2023-04-15T07:56:25;17.10;;;12.18;;
7295;SDS011;40758;54.038;11.684;2023-04-15T07:58:52;17.27;;;12.13;;
7295;SDS011;40758;54.038;11.684;2023-04-15T08:01:19;16.83;;;13.32;;
7295;SDS011;40758;54.038;11.684;2023-04-15T08:03:45;20.30;;;12.88;;
7295;SDS011;40758;54.038;11.684;2023-04-15T08:06:12;23.00;;;13.55;;
7295;SDS011;40758;54.038;11.684;2023-04-15T08:08:40;17.75;;;11.10;;
7295;SDS011;40758;54.038;11.684;2023-04-15T08:11:09;20.20;;;12.73;;
7295;SDS011;40758;54.038;11.684;2023-04-15T08:13:37;21.08;;;12.32;;
7295;SDS011;40758;54.038;11.684;2023-04-15T08:18:46;18.08;;;13.38;;
7295;SDS011;40758;54.038;11.684;2023-04-15T08:21:14;16.58;;;10.55;;
7295;SDS011;40758;54.038;11.684;2023-04-15T08:23:43;15.20;;;9.60;;
7295;SDS011;40758;54.038;11.684;2023-04-15T08:26:13;19.15;;;12.68;;
7295;SDS011;40758;54.038;11.684;2023-04-15T08:28:44;16.52;;;10.48;;
7295;SDS011;40758;54.038;11.684;2023-04-15T08:31:14;16.33;;;12.32;;
7295;SDS011;40758;54.038;11.684;2023-04-15T08:33:42;16.77;;;12.32;;
7295;SDS011;40758;54.038;11.684;2023-04-15T08:36:09;18.20;;;12.85;;
7295;SDS011;40758;54.038;11.684;2023-04-15T08:38:43;16.77;;;11.80;;
7295;SDS011;40758;54.038;11.684;2023-04-15T08:41:25;16.38;;;12.15;;
7295;SDS011;40758;54.038;11.684;2023-04-15T08:43:53;15.48;;;11.25;;
7295;SDS011;40758;54.038;11.684;2023-04-15T08:46:23;16.42;;;10.65;;
7295;SDS011;40758;54.038;11.684;2023-04-15T08:48:50;17.67;;;12.85;;
7295;SDS011;40758;54.038;11.684;2023-04-15T08:51:21;16.20;;;12.35;;
7295;SDS011;40758;54.038;11.684;2023-04-15T08:53:50;18.58;;;11.90;;
7295;SDS011;40758;54.038;11.684;2023-04-15T08:56:17;17.10;;;11.82;;
7295;SDS011;40758;54.038;11.684;2023-04-15T08:58:45;18.08;;;13.10;;
7295;SDS011;40758;54.038;11.684;2023-04-15T09:01:13;17.80;;;11.85;;
7295;SDS011;40758;54.038;11.684;2023-04-15T09:03:40;19.02;;;12.30;;
7295;SDS011;40758;54.038;11.684;2023-04-15T09:08:45;16.00;;;11.63;;
7295;SDS011;40758;54.038;11.684;2023-04-15T09:11:12;17.20;;;12.65;;
7295;SDS011;40758;54.038;11.684;2023-04-15T09:13:39;18.65;;;12.82;;
7295;SDS011;40758;54.038;11.684;2023-04-15T09:16:08;17.15;;;11.88;;
7295;SDS011;40758;54.038;11.684;2023-04-15T09:18:39;15.38;;;10.65;;
7295;SDS011;40758;54.038;11.684;2023-04-15T09:21:10;17.10;;;11.18;;
7295;SDS011;40758;54.038;11.684;2023-04-15T09:23:40;15.50;;;11.75;;
7295;SDS011;40758;54.038;11.684;2023-04-15T09:26:29;17.05;;;12.48;;
7295;SDS011;40758;54.038;11.684;2023-04-15T09:29:03;19.13;;;13.02;;
7295;SDS011;40758;54.038;11.684;2023-04-15T09:31:32;17.10;;;12.35;;
7295;SDS011;40758;54.038;11.684;2023-04-15T09:33:59;20.58;;;12.73;;
7295;SDS011;40758;54.038;11.684;2023-04-15T09:36:26;17.13;;;11.82;;
7295;SDS011;40758;54.038;11.684;2023-04-15T09:38:55;18.92;;;13.65;;
7295;SDS011;40758;54.038;11.684;2023-04-15T09:41:26;23.92;;;15.15;;
7295;SDS011;40758;54.038;11.684;2023-04-15T09:43:53;18.40;;;13.75;;
7295;SDS011;40758;54.038;11.684;2023-04-15T09:46:20;23.00;;;15.20;;
7295;SDS011;40758;54.038;11.684;2023-04-15T09:49:09;19.77;;;13.70;;
7295;SDS011;40758;54.038;11.684;2023-04-15T09:51:42;20.98;;;16.23;;
7295;SDS011;40758;54.038;11.684;2023-04-15T09:54:23;16.80;;;11.40;;
7295;SDS011;40758;54.038;11.684;2023-04-15T09:56:49;21.92;;;15.32;;
7295;SDS011;40758;54.038;11.684;2023-04-15T09:59:16;22.48;;;15.40;;
7295;SDS011;40758;54.038;11.684;2023-04-15T10:01:45;23.17;;;15.98;;
7295;SDS011;40758;54.038;11.684;2023-04-15T10:04:12;25.15;;;18.10;;
7295;SDS011;40758;54.038;11.684;2023-04-15T10:06:43;24.27;;;15.57;;
7295;SDS011;40758;54.038;11.684;2023-04-15T10:09:10;21.38;;;14.73;;
7295;SDS011;40758;54.038;11.684;2023-04-15T10:11:38;22.75;;;17.17;;
7295;SDS011;40758;54.038;11.684;2023-04-15T10:14:05;24.08;;;17.13;;
7295;SDS011;40758;54.038;11.684;2023-04-15T10:16:34;20.77;;;16.25;;
7295;SDS011;40758;54.038;11.684;2023-04-15T10:19:04;23.55;;;16.70;;
7295;SDS011;40758;54.038;11.684;2023-04-15T10:21:34;23.85;;;17.02;;
7295;SDS011;40758;54.038;11.684;2023-04-15T10:24:02;24.27;;;17.33;;
7295;SDS011;40758;54.038;11.684;2023-04-15T10:26:30;20.42;;;15.38;;
7295;SDS011;40758;54.038;11.684;2023-04-15T10:28:57;20.52;;;15.55;;
7295;SDS011;40758;54.038;11.684;2023-04-15T10:31:25;24.13;;;18.55;;
7295;SDS011;40758;54.038;11.684;2023-04-15T10:33:52;21.23;;;16.92;;
7295;SDS011;40758;54.038;11.684;2023-04-15T10:36:19;24.90;;;17.77;;
7295;SDS011;40758;54.038;11.684;2023-04-15T10:38:46;24.13;;;20.15;;
7295;SDS011;40758;54.038;11.684;2023-04-15T10:41:23;25.83;;;16.92;;
7295;SDS011;40758;54.038;11.684;2023-04-15T10:44:00;19.85;;;15.77;;
7295;SDS011;40758;54.038;11.684;2023-04-15T10:49:16;24.80;;;20.10;;
7295;SDS011;40758;54.038;11.684;2023-04-15T10:51:51;22.75;;;17.40;;
7295;SDS011;40758;54.038;11.684;2023-04-15T10:57:14;21.73;;;15.55;;
7295;SDS011;40758;54.038;11.684;2023-04-15T11:02:44;26.05;;;18.23;;
7295;SDS011;40758;54.038;11.684;2023-04-15T11:05:20;25.52;;;20.40;;
7295;SDS011;40758;54.038;11.684;2023-04-15T11:07:49;24.17;;;20.27;;
7295;SDS011;40758;54.038;11.684;2023-04-15T11:12:57;25.55;;;19.40;;
7295;SDS011;40758;54.038;11.684;2023-04-15T11:18:09;21.35;;;15.32;;
7295;SDS011;40758;54.038;11.684;2023-04-15T11:20:38;27.15;;;19.50;;
7295;SDS011;40758;54.038;11.684;2023-04-15T11:23:12;26.65;;;18.88;;
7295;SDS011;40758;54.038;11.684;2023-04-15T11:25:42;24.73;;;18.20;;
7295;SDS011;40758;54.038;11.684;2023-04-15T11:28:09;27.55;;;20.08;;
7295;SDS011;40758;54.038;11.684;2023-04-15T11:30:39;22.65;;;17.20;;
7295;SDS011;40758;54.038;11.684;2023-04-15T11:33:13;28.67;;;18.30;;
7295;SDS011;40758;54.038;11.684;2023-04-15T11:35:40;25.58;;;21.85;;
7295;SDS011;40758;54.038;11.684;2023-04-15T11:38:13;27.08;;;18.73;;
7295;SDS011;40758;54.038;11.684;2023-04-15T11:40:44;25.95;;;21.27;;
7295;SDS011;40758;54.038;11.684;2023-04-15T11:43:13;23.83;;;18.10;;
7295;SDS011;40758;54.038;11.684;2023-04-15T11:48:21;23.52;;;16.70;;
7295;SDS011;40758;54.038;11.684;2023-04-15T11:50:53;22.38;;;16.98;;
7295;SDS011;40758;54.038;11.684;2023-04-15T11:53:34;22.30;;;14.93;;
7295;SDS011;40758;54.038;11.684;2023-04-15T11:56:03;24.38;;;18.60;;
7295;SDS011;40758;54.038;11.684;2023-04-15T11:58:33;18.30;;;14.05;;
7295;SDS011;40758;54.038;11.684;2023-04-15T12:01:03;21.88;;;15.18;;
7295;SDS011;40758;54.038;11.684;2023-04-15T12:03:35;22.88;;;18.30;;
7295;SDS011;40758;54.038;11.684;2023-04-15T12:06:06;23.45;;;17.25;;
7295;SDS011;40758;54.038;11.684;2023-04-15T12:08:57;19.90;;;14.55;;
7295;SDS011;40758;54.038;11.684;2023-04-15T12:13:55;19.40;;;14.68;;
7295;SDS011;40758;54.038;11.684;2023-04-15T12:16:28;17.55;;;13.90;;
7295;SDS011;40758;54.038;11.684;2023-04-15T12:18:56;21.83;;;15.95;;
7295;SDS011;40758;54.038;11.684;2023-04-15T12:21:25;19.98;;;12.50;;
7295;SDS011;40758;54.038;11.684;2023-04-15T12:23:56;20.80;;;15.25;;
7295;SDS011;40758;54.038;11.684;2023-04-15T12:26:28;18.58;;;12.80;;
7295;SDS011;40758;54.038;11.684;2023-04-15T12:29:01;18.92;;;15.07;;
7295;SDS011;40758;54.038;11.684;2023-04-15T12:31:28;19.05;;;13.10;;
7295;SDS011;40758;54.038;11.684;2023-04-15T12:33:56;16.85;;;13.25;;
7295;SDS011;40758;54.038;11.684;2023-04-15T12:36:24;19.33;;;14.00;;
7295;SDS011;40758;54.038;11.684;2023-04-15T12:38:50;17.15;;;12.55;;
7295;SDS011;40758;54.038;11.684;2023-04-15T12:41:19;17.88;;;12.48;;
7295;SDS011;40758;54.038;11.684;2023-04-15T12:43:46;19.42;;;12.40;;
7295;SDS011;40758;54.038;11.684;2023-04-15T12:46:13;17.70;;;13.80;;
7295;SDS011;40758;54.038;11.684;2023-04-15T12:48:42;19.83;;;12.95;;
7295;SDS011;40758;54.038;11.684;2023-04-15T12:51:08;17.08;;;15.20;;
7295;SDS011;40758;54.038;11.684;2023-04-15T12:58:30;17.52;;;13.18;;
7295;SDS011;40758;54.038;11.684;2023-04-15T13:00:57;15.32;;;11.50;;
7295;SDS011;40758;54.038;11.684;2023-04-15T13:03:24;20.70;;;18.63;;
7295;SDS011;40758;54.038;11.684;2023-04-15T13:05:50;19.52;;;13.48;;
7295;SDS011;40758;54.038;11.684;2023-04-15T13:08:19;20.08;;;14.48;;
7295;SDS011;40758;54.038;11.684;2023-04-15T13:10:46;20.23;;;15.02;;
7295;SDS011;40758;54.038;11.684;2023-04-15T13:13:13;17.35;;;13.02;;
7295;SDS011;40758;54.038;11.684;2023-04-15T13:15:40;22.35;;;16.63;;
7295;SDS011;40758;54.038;11.684;2023-04-15T13:18:09;19.92;;;14.32;;
7295;SDS011;40758;54.038;11.684;2023-04-15T13:20:36;23.33;;;18.60;;
7295;SDS011;40758;54.038;11.684;2023-04-15T13:23:03;22.02;;;14.43;;
7295;SDS011;40758;54.038;11.684;2023-04-15T13:25:30;23.10;;;18.67;;
7295;SDS011;40758;54.038;11.684;2023-04-15T13:27:56;19.73;;;13.68;;
7295;SDS011;40758;54.038;11.684;2023-04-15T13:30:23;23.98;;;16.60;;
7295;SDS011;40758;54.038;11.684;2023-04-15T13:32:50;22.80;;;16.30;;
7295;SDS011;40758;54.038;11.684;2023-04-15T13:35:18;22.42;;;16.33;;
7295;SDS011;40758;54.038;11.684;2023-04-15T13:37:46;23.50;;;17.77;;
7295;SDS011;40758;54.038;11.684;2023-04-15T13:40:13;22.13;;;16.42;;
7295;SDS011;40758;54.038;11.684;2023-04-15T13:42:40;22.05;;;16.42;;
7295;SDS011;40758;54.038;11.684;2023-04-15T13:45:13;20.40;;;15.43;;
7295;SDS011;40758;54.038;11.684;2023-04-15T13:47:44;21.95;;;16.77;;
7295;SDS011;40758;54.038;11.684;2023-04-15T13:50:12;21.73;;;16.88;;
7295;SDS011;40758;54.038;11.684;2023-04-15T13:52:38;22.45;;;15.30;;
7295;SDS011;40758;54.038;11.684;2023-04-15T13:55:05;22.55;;;15.52;;
7295;SDS011;40758;54.038;11.684;2023-04-15T13:57:46;19.88;;;14.35;;
7295;SDS011;40758;54.038;11.684;2023-04-15T14:00:13;20.58;;;14.68;;
7295;SDS011;40758;54.038;11.684;2023-04-15T14:02:43;21.98;;;15.23;;
7295;SDS011;40758;54.038;11.684;2023-04-15T14:05:10;22.48;;;16.02;;
7295;SDS011;40758;54.038;11.684;2023-04-15T14:07:38;22.33;;;15.77;;
7295;SDS011;40758;54.038;11.684;2023-04-15T14:10:08;22.10;;;15.02;;
7295;SDS011;40758;54.038;11.684;2023-04-15T14:12:34;22.50;;;14.93;;
7295;SDS011;40758;54.038;11.684;2023-04-15T14:15:01;23.55;;;15.15;;
7295;SDS011;40758;54.038;11.684;2023-04-15T14:17:28;22.95;;;15.65;;
7295;SDS011;40758;54.038;11.684;2023-04-15T14:19:55;20.50;;;13.18;;
7295;SDS011;40758;54.038;11.684;2023-04-15T14:22:22;21.50;;;14.50;;
7295;SDS011;40758;54.038;11.684;2023-04-15T14:24:48;22.00;;;15.23;;
7295;SDS011;40758;54.038;11.684;2023-04-15T14:27:15;19.23;;;11.98;;
7295;SDS011;40758;54.038;11.684;2023-04-15T14:29:42;20.08;;;13.52;;
7295;SDS011;40758;54.038;11.684;2023-04-15T14:32:11;25.25;;;16.23;;
7295;SDS011;40758;54.038;11.684;2023-04-15T14:34:42;23.58;;;17.77;;
7295;SDS011;40758;54.038;11.684;2023-04-15T14:37:09;20.52;;;14.25;;
7295;SDS011;40758;54.038;11.684;2023-04-15T14:39:38;20.80;;;14.40;;
7295;SDS011;40758;54.038;11.684;2023-04-15T14:42:07;23.20;;;13.68;;
7295;SDS011;40758;54.038;11.684;2023-04-15T14:44:34;25.65;;;17.10;;
7295;SDS011;40758;54.038;11.684;2023-04-15T14:47:00;23.90;;;15.10;;
7295;SDS011;40758;54.038;11.684;2023-04-15T14:49:28;24.75;;;14.05;;
7295;SDS011;40758;54.038;11.684;2023-04-15T14:54:22;23.27;;;13.32;;
7295;SDS011;40758;54.038;11.684;2023-04-15T14:56:48;22.48;;;13.80;;
7295;SDS011;40758;54.038;11.684;2023-04-15T14:59:15;26.58;;;14.35;;
7295;SDS011;40758;54.038;11.684;2023-04-15T15:01:42;22.98;;;13.93;;
7295;SDS011;40758;54.038;11.684;2023-04-15T15:04:09;23.83;;;16.60;;
7295;SDS011;40758;54.038;11.684;2023-04-15T15:06:37;26.75;;;14.27;;